sensor_id;sensor_type;location;lat;lon;timestamp;temperature;humidity
1391;DHT22;690;51.454;7.194;2023-09-07T00:01:34;16.90;1.00
1391;DHT22;690;51.454;7.194;2023-09-07T00:04:02;16.80;1.00
1391;DHT22;690;51.454;7.194;2023-09-07T00:06:31;16.80;1.00
1391;DHT22;690;51.454;7.194;2023-09-07T00:09:00;16.70;1.00
1391;DHT22;690;51.454;7.194;2023-09-07T00:11:26;16.70;25.00
1391;DHT22;690;51.454;7.194;2023-09-07T00:13:55;16.60;99.90
1391;DHT22;690;51.454;7.194;2023-09-07T00:16:25;16.50;99.90
1391;DHT22;690;51.454;7.194;2023-09-07T00:18:52;16.50;99.90
1391;DHT22;690;51.454;7.194;2023-09-07T00:21:18;16.50;99.90
1391;DHT22;690;51.454;7.194;2023-09-07T00:23:45;16.40;99.90
1391;DHT22;690;51.454;7.194;2023-09-07T00:26:12;16.40;99.90
1391;DHT22;690;51.454;7.194;2023-09-07T00:28:39;16.40;99.90
1391;DHT22;690;51.454;7.194;2023-09-07T00:31:08;16.40;99.90
1391;DHT22;690;51.454;7.194;2023-09-07T00:33:35;16.40;99.90
1391;DHT22;690;51.454;7.194;2023-09-07T00:36:02;16.40;99.90
1391;DHT22;690;51.454;7.194;2023-09-07T00:38:29;16.30;99.90
1391;DHT22;690;51.454;7.194;2023-09-07T00:40:55;16.30;99.90
1391;DHT22;690;51.454;7.194;2023-09-07T00:43:22;16.30;99.90
1391;DHT22;690;51.454;7.194;2023-09-07T00:45:49;16.30;99.90
1391;DHT22;690;51.454;7.194;2023-09-07T00:48:18;16.30;99.90
1391;DHT22;690;51.454;7.194;2023-09-07T00:50:45;16.30;99.90
1391;DHT22;690;51.454;7.194;2023-09-07T00:53:12;16.20;99.90
1391;DHT22;690;51.454;7.194;2023-09-07T00:55:39;16.20;99.90
1391;DHT22;690;51.454;7.194;2023-09-07T00:58:06;16.20;99.90
1391;DHT22;690;51.454;7.194;2023-09-07T01:00:34;16.30;99.90
1391;DHT22;690;51.454;7.194;2023-09-07T01:03:01;16.30;99.90
1391;DHT22;690;51.454;7.194;2023-09-07T01:05:34;16.30;99.90
1391;DHT22;690;51.454;7.194;2023-09-07T01:08:12;16.30;99.90
1391;DHT22;690;51.454;7.194;2023-09-07T01:10:41;16.30;99.90
1391;DHT22;690;51.454;7.194;2023-09-07T01:13:08;16.20;99.90
1391;DHT22;690;51.454;7.194;2023-09-07T01:15:35;16.30;99.90
1391;DHT22;690;51.454;7.194;2023-09-07T01:18:03;16.20;99.90
1391;DHT22;690;51.454;7.194;2023-09-07T01:20:32;16.20;99.90
1391;DHT22;690;51.454;7.194;2023-09-07T01:23:03;16.20;99.90
1391;DHT22;690;51.454;7.194;2023-09-07T01:25:31;16.20;99.90
1391;DHT22;690;51.454;7.194;2023-09-07T01:27:58;16.10;99.90
1391;DHT22;690;51.454;7.194;2023-09-07T01:30:27;16.10;99.90
1391;DHT22;690;51.454;7.194;2023-09-07T01:32:54;16.00;99.90
1391;DHT22;690;51.454;7.194;2023-09-07T01:35:21;16.00;99.90
1391;DHT22;690;51.454;7.194;2023-09-07T01:37:48;15.90;99.90
1391;DHT22;690;51.454;7.194;2023-09-07T01:40:17;15.90;99.90
1391;DHT22;690;51.454;7.194;2023-09-07T01:42:43;15.80;99.90
1391;DHT22;690;51.454;7.194;2023-09-07T01:45:10;15.70;1.00
1391;DHT22;690;51.454;7.194;2023-09-07T01:47:37;15.70;1.00
1391;DHT22;690;51.454;7.194;2023-09-07T01:50:05;15.70;1.00
1391;DHT22;690;51.454;7.194;2023-09-07T01:52:32;15.70;1.00
1391;DHT22;690;51.454;7.194;2023-09-07T01:54:59;15.60;1.00
1391;DHT22;690;51.454;7.194;2023-09-07T01:57:27;15.60;1.00
1391;DHT22;690;51.454;7.194;2023-09-07T01:59:55;15.50;1.00
1391;DHT22;690;51.454;7.194;2023-09-07T02:02:21;15.50;1.00
1391;DHT22;690;51.454;7.194;2023-09-07T02:04:48;15.40;1.00
1391;DHT22;690;51.454;7.194;2023-09-07T02:07:15;15.40;35.50
1391;DHT22;690;51.454;7.194;2023-09-07T02:09:42;15.30;99.90
1391;DHT22;690;51.454;7.194;2023-09-07T02:12:09;15.30;99.90
1391;DHT22;690;51.454;7.194;2023-09-07T02:14:42;15.30;99.90
1391;DHT22;690;51.454;7.194;2023-09-07T02:17:12;15.20;99.90
1391;DHT22;690;51.454;7.194;2023-09-07T02:19:43;15.20;99.90
1391;DHT22;690;51.454;7.194;2023-09-07T02:22:10;15.10;99.90
1391;DHT22;690;51.454;7.194;2023-09-07T02:24:37;15.10;99.90
1391;DHT22;690;51.454;7.194;2023-09-07T02:27:04;15.00;1.00
1391;DHT22;690;51.454;7.194;2023-09-07T02:29:31;15.00;1.00
1391;DHT22;690;51.454;7.194;2023-09-07T02:31:59;15.00;1.00
1391;DHT22;690;51.454;7.194;2023-09-07T02:34:26;14.90;1.00
1391;DHT22;690;51.454;7.194;2023-09-07T02:36:53;14.90;1.00
1391;DHT22;690;51.454;7.194;2023-09-07T02:39:20;14.90;1.00
1391;DHT22;690;51.454;7.194;2023-09-07T02:41:46;14.90;7.90
1391;DHT22;690;51.454;7.194;2023-09-07T02:44:13;14.80;99.90
1391;DHT22;690;51.454;7.194;2023-09-07T02:46:40;14.80;99.90
1391;DHT22;690;51.454;7.194;2023-09-07T02:49:08;14.70;99.90
1391;DHT22;690;51.454;7.194;2023-09-07T02:51:35;14.70;99.90
1391;DHT22;690;51.454;7.194;2023-09-07T02:54:03;14.70;99.90
1391;DHT22;690;51.454;7.194;2023-09-07T02:56:29;14.70;99.90
1391;DHT22;690;51.454;7.194;2023-09-07T02:58:56;14.70;1.00
1391;DHT22;690;51.454;7.194;2023-09-07T03:01:23;14.70;1.00
1391;DHT22;690;51.454;7.194;2023-09-07T03:03:50;14.60;1.00
1391;DHT22;690;51.454;7.194;2023-09-07T03:06:18;14.70;1.00
1391;DHT22;690;51.454;7.194;2023-09-07T03:08:45;14.60;1.00
1391;DHT22;690;51.454;7.194;2023-09-07T03:11:12;14.60;57.90
1391;DHT22;690;51.454;7.194;2023-09-07T03:13:40;14.60;99.90
1391;DHT22;690;51.454;7.194;2023-09-07T03:16:07;14.60;99.90
1391;DHT22;690;51.454;7.194;2023-09-07T03:18:34;14.60;99.90
1391;DHT22;690;51.454;7.194;2023-09-07T03:21:02;14.60;99.90
1391;DHT22;690;51.454;7.194;2023-09-07T03:23:32;14.50;1.00
1391;DHT22;690;51.454;7.194;2023-09-07T03:25:59;14.50;1.00
1391;DHT22;690;51.454;7.194;2023-09-07T03:28:26;14.50;1.00
1391;DHT22;690;51.454;7.194;2023-09-07T03:30:53;14.50;1.00
1391;DHT22;690;51.454;7.194;2023-09-07T03:33:21;14.50;1.00
1391;DHT22;690;51.454;7.194;2023-09-07T03:35:47;14.50;1.00
1391;DHT22;690;51.454;7.194;2023-09-07T03:38:14;14.60;1.00
1391;DHT22;690;51.454;7.194;2023-09-07T03:40:43;14.60;1.00
1391;DHT22;690;51.454;7.194;2023-09-07T03:43:10;14.60;1.00
1391;DHT22;690;51.454;7.194;2023-09-07T03:45:36;14.60;1.00
1391;DHT22;690;51.454;7.194;2023-09-07T03:48:04;14.50;1.00
1391;DHT22;690;51.454;7.194;2023-09-07T03:50:31;14.50;1.00
1391;DHT22;690;51.454;7.194;2023-09-07T03:52:58;14.50;1.00
1391;DHT22;690;51.454;7.194;2023-09-07T03:55:25;14.50;1.00
1391;DHT22;690;51.454;7.194;2023-09-07T03:57:53;14.50;1.00
1391;DHT22;690;51.454;7.194;2023-09-07T04:00:20;14.50;99.90
1391;DHT22;690;51.454;7.194;2023-09-07T04:02:47;14.50;99.90
1391;DHT22;690;51.454;7.194;2023-09-07T04:05:17;14.50;99.90
1391;DHT22;690;51.454;7.194;2023-09-07T04:07:44;14.40;99.90
1391;DHT22;690;51.454;7.194;2023-09-07T04:10:11;14.40;99.90
1391;DHT22;690;51.454;7.194;2023-09-07T04:12:38;14.40;99.90
1391;DHT22;690;51.454;7.194;2023-09-07T04:15:07;14.40;99.90
1391;DHT22;690;51.454;7.194;2023-09-07T04:17:34;14.30;99.90
1391;DHT22;690;51.454;7.194;2023-09-07T04:20:07;14.30;99.90
1391;DHT22;690;51.454;7.194;2023-09-07T04:22:34;14.30;99.90
1391;DHT22;690;51.454;7.194;2023-09-07T04:25:02;14.30;99.90
1391;DHT22;690;51.454;7.194;2023-09-07T04:27:29;14.20;99.90
1391;DHT22;690;51.454;7.194;2023-09-07T04:29:56;14.20;99.90
1391;DHT22;690;51.454;7.194;2023-09-07T04:32:25;14.20;99.90
1391;DHT22;690;51.454;7.194;2023-09-07T04:34:56;14.20;99.90
1391;DHT22;690;51.454;7.194;2023-09-07T04:37:25;14.20;99.90
1391;DHT22;690;51.454;7.194;2023-09-07T04:39:52;14.10;99.90
1391;DHT22;690;51.454;7.194;2023-09-07T04:42:20;14.10;99.90
1391;DHT22;690;51.454;7.194;2023-09-07T04:44:47;14.10;99.90
1391;DHT22;690;51.454;7.194;2023-09-07T04:47:14;14.10;1.00
1391;DHT22;690;51.454;7.194;2023-09-07T04:49:48;14.10;1.00
1391;DHT22;690;51.454;7.194;2023-09-07T04:52:16;14.20;1.00
1391;DHT22;690;51.454;7.194;2023-09-07T04:54:43;14.20;1.00
1391;DHT22;690;51.454;7.194;2023-09-07T04:57:10;14.30;1.00
1391;DHT22;690;51.454;7.194;2023-09-07T04:59:37;14.30;1.00
1391;DHT22;690;51.454;7.194;2023-09-07T05:02:04;14.40;99.90
1391;DHT22;690;51.454;7.194;2023-09-07T05:04:31;14.40;99.90
1391;DHT22;690;51.454;7.194;2023-09-07T05:06:59;14.40;99.90
1391;DHT22;690;51.454;7.194;2023-09-07T05:09:26;14.50;1.00
1391;DHT22;690;51.454;7.194;2023-09-07T05:11:55;14.50;1.00
1391;DHT22;690;51.454;7.194;2023-09-07T05:14:25;14.60;1.00
1391;DHT22;690;51.454;7.194;2023-09-07T05:16:52;14.60;99.90
1391;DHT22;690;51.454;7.194;2023-09-07T05:19:22;14.70;99.90
1391;DHT22;690;51.454;7.194;2023-09-07T05:21:49;14.70;13.60
1391;DHT22;690;51.454;7.194;2023-09-07T05:24:17;14.70;1.00
1391;DHT22;690;51.454;7.194;2023-09-07T05:26:44;14.70;1.00
1391;DHT22;690;51.454;7.194;2023-09-07T05:29:11;14.70;1.00
1391;DHT22;690;51.454;7.194;2023-09-07T05:31:38;14.80;1.00
1391;DHT22;690;51.454;7.194;2023-09-07T05:34:07;14.80;1.00
1391;DHT22;690;51.454;7.194;2023-09-07T05:36:34;14.80;99.90
1391;DHT22;690;51.454;7.194;2023-09-07T05:39:01;14.80;99.90
1391;DHT22;690;51.454;7.194;2023-09-07T05:41:30;14.90;99.90
1391;DHT22;690;51.454;7.194;2023-09-07T05:43:57;14.90;99.90
1391;DHT22;690;51.454;7.194;2023-09-07T05:46:25;14.90;99.90
1391;DHT22;690;51.454;7.194;2023-09-07T05:48:55;14.90;99.90
1391;DHT22;690;51.454;7.194;2023-09-07T05:51:21;15.00;99.90
1391;DHT22;690;51.454;7.194;2023-09-07T05:53:48;15.00;99.90
1391;DHT22;690;51.454;7.194;2023-09-07T05:56:15;15.10;99.90
1391;DHT22;690;51.454;7.194;2023-09-07T05:58:44;15.10;99.90
1391;DHT22;690;51.454;7.194;2023-09-07T06:01:11;15.20;82.20
1391;DHT22;690;51.454;7.194;2023-09-07T06:03:38;15.20;41.30
1391;DHT22;690;51.454;7.194;2023-09-07T06:06:07;15.20;1.00
1391;DHT22;690;51.454;7.194;2023-09-07T06:08:33;15.20;1.00
1391;DHT22;690;51.454;7.194;2023-09-07T06:11:00;15.20;2.80
1391;DHT22;690;51.454;7.194;2023-09-07T06:13:27;15.30;6.20
1391;DHT22;690;51.454;7.194;2023-09-07T06:15:55;15.30;3.90
1391;DHT22;690;51.454;7.194;2023-09-07T06:18:22;15.30;2.50
1391;DHT22;690;51.454;7.194;2023-09-07T06:20:49;15.40;6.60
1391;DHT22;690;51.454;7.194;2023-09-07T06:23:16;15.40;12.10
1391;DHT22;690;51.454;7.194;2023-09-07T06:25:43;15.50;21.90
1391;DHT22;690;51.454;7.194;2023-09-07T06:28:10;15.50;28.30
1391;DHT22;690;51.454;7.194;2023-09-07T06:30:37;15.60;8.50
1391;DHT22;690;51.454;7.194;2023-09-07T06:33:05;15.60;3.20
1391;DHT22;690;51.454;7.194;2023-09-07T06:35:32;15.70;1.00
1391;DHT22;690;51.454;7.194;2023-09-07T06:37:59;15.90;1.00
1391;DHT22;690;51.454;7.194;2023-09-07T06:40:26;15.90;1.00
1391;DHT22;690;51.454;7.194;2023-09-07T06:42:52;15.90;1.00
1391;DHT22;690;51.454;7.194;2023-09-07T06:45:20;16.00;1.00
1391;DHT22;690;51.454;7.194;2023-09-07T06:47:49;16.00;1.00
1391;DHT22;690;51.454;7.194;2023-09-07T06:50:18;16.10;1.00
1391;DHT22;690;51.454;7.194;2023-09-07T06:52:45;16.10;1.00
1391;DHT22;690;51.454;7.194;2023-09-07T06:55:12;16.20;1.00
1391;DHT22;690;51.454;7.194;2023-09-07T06:57:38;16.20;1.00
1391;DHT22;690;51.454;7.194;2023-09-07T07:00:06;16.30;1.00
1391;DHT22;690;51.454;7.194;2023-09-07T07:02:33;16.40;1.00
1391;DHT22;690;51.454;7.194;2023-09-07T07:05:01;16.50;1.00
1391;DHT22;690;51.454;7.194;2023-09-07T07:07:29;16.50;1.00
1391;DHT22;690;51.454;7.194;2023-09-07T07:09:57;16.60;1.00
1391;DHT22;690;51.454;7.194;2023-09-07T07:12:23;16.70;1.00
1391;DHT22;690;51.454;7.194;2023-09-07T07:14:51;16.80;1.00
1391;DHT22;690;51.454;7.194;2023-09-07T07:17:18;16.90;99.90
1391;DHT22;690;51.454;7.194;2023-09-07T07:19:45;17.00;99.90
1391;DHT22;690;51.454;7.194;2023-09-07T07:22:12;17.10;99.90
1391;DHT22;690;51.454;7.194;2023-09-07T07:24:41;17.20;99.90
1391;DHT22;690;51.454;7.194;2023-09-07T07:27:08;17.30;99.90
1391;DHT22;690;51.454;7.194;2023-09-07T07:29:36;17.40;99.90
1391;DHT22;690;51.454;7.194;2023-09-07T07:32:03;17.50;56.70
1391;DHT22;690;51.454;7.194;2023-09-07T07:34:30;17.60;6.30
1391;DHT22;690;51.454;7.194;2023-09-07T07:36:58;17.60;1.00
1391;DHT22;690;51.454;7.194;2023-09-07T07:39:25;17.70;1.00
1391;DHT22;690;51.454;7.194;2023-09-07T07:41:53;17.80;1.00
1391;DHT22;690;51.454;7.194;2023-09-07T07:44:20;17.90;1.00
1391;DHT22;690;51.454;7.194;2023-09-07T07:46:47;17.90;1.00
1391;DHT22;690;51.454;7.194;2023-09-07T07:49:14;18.00;1.00
1391;DHT22;690;51.454;7.194;2023-09-07T07:51:41;18.10;1.00
1391;DHT22;690;51.454;7.194;2023-09-07T07:54:08;18.20;1.00
1391;DHT22;690;51.454;7.194;2023-09-07T07:56:35;18.30;1.00
1391;DHT22;690;51.454;7.194;2023-09-07T07:59:03;18.40;1.00
1391;DHT22;690;51.454;7.194;2023-09-07T08:01:30;18.50;1.00
1391;DHT22;690;51.454;7.194;2023-09-07T08:03:57;18.60;1.00
1391;DHT22;690;51.454;7.194;2023-09-07T08:06:24;18.70;1.00
1391;DHT22;690;51.454;7.194;2023-09-07T08:08:51;18.80;1.00
1391;DHT22;690;51.454;7.194;2023-09-07T08:11:18;18.90;1.00
1391;DHT22;690;51.454;7.194;2023-09-07T08:13:47;19.00;1.00
1391;DHT22;690;51.454;7.194;2023-09-07T08:16:15;19.10;1.00
1391;DHT22;690;51.454;7.194;2023-09-07T08:18:41;19.20;1.00
1391;DHT22;690;51.454;7.194;2023-09-07T08:21:08;19.30;1.00
1391;DHT22;690;51.454;7.194;2023-09-07T08:23:35;19.40;1.00
1391;DHT22;690;51.454;7.194;2023-09-07T08:26:03;19.50;1.00
1391;DHT22;690;51.454;7.194;2023-09-07T08:28:30;19.60;1.00
1391;DHT22;690;51.454;7.194;2023-09-07T08:30:58;19.70;1.00
1391;DHT22;690;51.454;7.194;2023-09-07T08:33:28;19.80;1.00
1391;DHT22;690;51.454;7.194;2023-09-07T08:35:56;19.90;1.00
1391;DHT22;690;51.454;7.194;2023-09-07T08:38:25;20.00;1.00
1391;DHT22;690;51.454;7.194;2023-09-07T08:40:54;20.10;1.00
1391;DHT22;690;51.454;7.194;2023-09-07T08:43:22;20.30;1.00
1391;DHT22;690;51.454;7.194;2023-09-07T08:45:55;20.40;1.00
1391;DHT22;690;51.454;7.194;2023-09-07T08:48:28;20.50;1.00
1391;DHT22;690;51.454;7.194;2023-09-07T08:50:56;20.60;1.00
1391;DHT22;690;51.454;7.194;2023-09-07T08:53:23;20.70;1.00
1391;DHT22;690;51.454;7.194;2023-09-07T08:55:51;20.90;1.00
1391;DHT22;690;51.454;7.194;2023-09-07T08:58:18;21.00;99.90
1391;DHT22;690;51.454;7.194;2023-09-07T09:00:45;21.10;99.90
1391;DHT22;690;51.454;7.194;2023-09-07T09:03:12;21.20;99.90
1391;DHT22;690;51.454;7.194;2023-09-07T09:05:40;21.40;99.90
1391;DHT22;690;51.454;7.194;2023-09-07T09:08:07;21.50;99.90
1391;DHT22;690;51.454;7.194;2023-09-07T09:10:37;21.60;99.90
1391;DHT22;690;51.454;7.194;2023-09-07T09:13:04;21.70;99.90
1391;DHT22;690;51.454;7.194;2023-09-07T09:15:31;21.80;99.90
1391;DHT22;690;51.454;7.194;2023-09-07T09:17:58;22.00;99.90
1391;DHT22;690;51.454;7.194;2023-09-07T09:20:35;22.10;99.90
1391;DHT22;690;51.454;7.194;2023-09-07T09:23:05;22.30;99.90
1391;DHT22;690;51.454;7.194;2023-09-07T09:25:33;22.40;99.90
1391;DHT22;690;51.454;7.194;2023-09-07T09:27:59;22.50;99.90
1391;DHT22;690;51.454;7.194;2023-09-07T09:30:27;22.70;99.90
1391;DHT22;690;51.454;7.194;2023-09-07T09:32:54;22.80;99.90
1391;DHT22;690;51.454;7.194;2023-09-07T09:35:21;22.90;99.90
1391;DHT22;690;51.454;7.194;2023-09-07T09:37:49;23.00;99.90
1391;DHT22;690;51.454;7.194;2023-09-07T09:40:17;23.10;99.90
1391;DHT22;690;51.454;7.194;2023-09-07T09:42:44;23.20;99.90
1391;DHT22;690;51.454;7.194;2023-09-07T09:45:12;23.30;99.90
1391;DHT22;690;51.454;7.194;2023-09-07T09:47:40;23.40;99.90
1391;DHT22;690;51.454;7.194;2023-09-07T09:50:09;23.50;99.90
1391;DHT22;690;51.454;7.194;2023-09-07T09:52:36;23.60;99.90
1391;DHT22;690;51.454;7.194;2023-09-07T09:55:05;23.70;99.90
1391;DHT22;690;51.454;7.194;2023-09-07T09:57:35;23.80;99.90
1391;DHT22;690;51.454;7.194;2023-09-07T10:00:03;23.90;99.90
1391;DHT22;690;51.454;7.194;2023-09-07T10:02:47;24.00;99.90
1391;DHT22;690;51.454;7.194;2023-09-07T10:05:17;24.10;99.90
1391;DHT22;690;51.454;7.194;2023-09-07T10:07:48;24.20;99.90
1391;DHT22;690;51.454;7.194;2023-09-07T10:10:18;24.30;99.90
1391;DHT22;690;51.454;7.194;2023-09-07T10:12:52;24.40;99.90
1391;DHT22;690;51.454;7.194;2023-09-07T10:15:21;24.50;99.90
1391;DHT22;690;51.454;7.194;2023-09-07T10:17:48;24.60;99.90
1391;DHT22;690;51.454;7.194;2023-09-07T10:20:19;24.60;99.90
1391;DHT22;690;51.454;7.194;2023-09-07T10:22:48;24.60;99.90
1391;DHT22;690;51.454;7.194;2023-09-07T10:25:19;24.80;99.90
1391;DHT22;690;51.454;7.194;2023-09-07T10:27:48;24.80;99.90
1391;DHT22;690;51.454;7.194;2023-09-07T10:30:16;24.90;99.90
1391;DHT22;690;51.454;7.194;2023-09-07T10:32:45;25.00;99.90
1391;DHT22;690;51.454;7.194;2023-09-07T10:35:15;25.00;99.90
1391;DHT22;690;51.454;7.194;2023-09-07T10:37:44;25.10;99.90
1391;DHT22;690;51.454;7.194;2023-09-07T10:40:13;25.10;99.90
1391;DHT22;690;51.454;7.194;2023-09-07T10:42:45;25.20;99.90
1391;DHT22;690;51.454;7.194;2023-09-07T10:45:14;25.20;99.90
1391;DHT22;690;51.454;7.194;2023-09-07T10:47:42;25.30;99.90
1391;DHT22;690;51.454;7.194;2023-09-07T10:50:11;25.30;99.90
1391;DHT22;690;51.454;7.194;2023-09-07T10:52:39;25.40;99.90
1391;DHT22;690;51.454;7.194;2023-09-07T10:55:08;25.50;99.90
1391;DHT22;690;51.454;7.194;2023-09-07T10:57:45;25.60;99.90
1391;DHT22;690;51.454;7.194;2023-09-07T11:00:15;25.70;99.90
1391;DHT22;690;51.454;7.194;2023-09-07T11:02:43;25.70;99.90
1391;DHT22;690;51.454;7.194;2023-09-07T11:05:10;25.80;99.90
1391;DHT22;690;51.454;7.194;2023-09-07T11:07:37;25.90;99.90
1391;DHT22;690;51.454;7.194;2023-09-07T11:10:07;25.80;99.90
1391;DHT22;690;51.454;7.194;2023-09-07T11:12:37;25.90;99.90
1391;DHT22;690;51.454;7.194;2023-09-07T11:15:07;25.90;99.90
1391;DHT22;690;51.454;7.194;2023-09-07T11:17:37;26.00;99.90
1391;DHT22;690;51.454;7.194;2023-09-07T11:20:05;26.00;99.90
1391;DHT22;690;51.454;7.194;2023-09-07T11:22:33;26.20;99.90
1391;DHT22;690;51.454;7.194;2023-09-07T11:25:00;26.30;99.90
1391;DHT22;690;51.454;7.194;2023-09-07T11:27:29;26.30;99.90
1391;DHT22;690;51.454;7.194;2023-09-07T11:29:56;26.40;99.90
1391;DHT22;690;51.454;7.194;2023-09-07T11:32:24;26.40;99.90
1391;DHT22;690;51.454;7.194;2023-09-07T11:34:52;26.40;99.90
1391;DHT22;690;51.454;7.194;2023-09-07T11:37:24;26.50;99.90
1391;DHT22;690;51.454;7.194;2023-09-07T11:39:51;26.60;99.90
1391;DHT22;690;51.454;7.194;2023-09-07T11:42:18;26.70;99.90
1391;DHT22;690;51.454;7.194;2023-09-07T11:44:45;26.70;99.90
1391;DHT22;690;51.454;7.194;2023-09-07T11:47:12;26.80;99.90
1391;DHT22;690;51.454;7.194;2023-09-07T11:49:40;26.80;99.90
1391;DHT22;690;51.454;7.194;2023-09-07T11:52:08;26.80;99.90
1391;DHT22;690;51.454;7.194;2023-09-07T11:54:35;26.80;99.90
1391;DHT22;690;51.454;7.194;2023-09-07T11:57:03;26.90;99.90
1391;DHT22;690;51.454;7.194;2023-09-07T11:59:30;26.90;99.90
1391;DHT22;690;51.454;7.194;2023-09-07T12:01:58;26.90;99.90
1391;DHT22;690;51.454;7.194;2023-09-07T12:04:24;27.00;99.90
1391;DHT22;690;51.454;7.194;2023-09-07T12:06:51;27.00;99.90
1391;DHT22;690;51.454;7.194;2023-09-07T12:09:20;26.90;99.90
1391;DHT22;690;51.454;7.194;2023-09-07T12:11:46;27.00;99.90
1391;DHT22;690;51.454;7.194;2023-09-07T12:14:13;27.00;99.90
1391;DHT22;690;51.454;7.194;2023-09-07T12:16:41;27.00;99.90
1391;DHT22;690;51.454;7.194;2023-09-07T12:19:08;27.10;99.90
1391;DHT22;690;51.454;7.194;2023-09-07T12:21:35;27.20;99.90
1391;DHT22;690;51.454;7.194;2023-09-07T12:24:01;27.30;99.90
1391;DHT22;690;51.454;7.194;2023-09-07T12:26:30;27.40;99.90
1391;DHT22;690;51.454;7.194;2023-09-07T12:28:56;27.40;99.90
1391;DHT22;690;51.454;7.194;2023-09-07T12:31:23;27.40;99.90
1391;DHT22;690;51.454;7.194;2023-09-07T12:33:50;27.40;99.90
1391;DHT22;690;51.454;7.194;2023-09-07T12:36:17;27.40;99.90
1391;DHT22;690;51.454;7.194;2023-09-07T12:38:47;27.40;99.90
1391;DHT22;690;51.454;7.194;2023-09-07T12:41:14;27.40;99.90
1391;DHT22;690;51.454;7.194;2023-09-07T12:43:42;27.50;99.90
1391;DHT22;690;51.454;7.194;2023-09-07T12:46:09;27.50;99.90
1391;DHT22;690;51.454;7.194;2023-09-07T12:48:36;27.60;99.90
1391;DHT22;690;51.454;7.194;2023-09-07T12:51:03;27.60;99.90
1391;DHT22;690;51.454;7.194;2023-09-07T12:53:30;27.60;99.90
1391;DHT22;690;51.454;7.194;2023-09-07T12:55:57;27.60;99.90
1391;DHT22;690;51.454;7.194;2023-09-07T12:58:24;27.60;99.90
1391;DHT22;690;51.454;7.194;2023-09-07T13:00:52;27.60;99.90
1391;DHT22;690;51.454;7.194;2023-09-07T13:03:19;27.60;99.90
1391;DHT22;690;51.454;7.194;2023-09-07T13:05:46;27.60;99.90
1391;DHT22;690;51.454;7.194;2023-09-07T13:08:14;27.60;99.90
1391;DHT22;690;51.454;7.194;2023-09-07T13:10:41;27.60;99.90
1391;DHT22;690;51.454;7.194;2023-09-07T13:13:07;27.60;99.90
1391;DHT22;690;51.454;7.194;2023-09-07T13:15:34;27.60;99.90
1391;DHT22;690;51.454;7.194;2023-09-07T13:18:03;27.60;99.90
1391;DHT22;690;51.454;7.194;2023-09-07T13:20:30;27.70;99.90
1391;DHT22;690;51.454;7.194;2023-09-07T13:22:57;27.70;99.90
1391;DHT22;690;51.454;7.194;2023-09-07T13:25:25;27.60;99.90
1391;DHT22;690;51.454;7.194;2023-09-07T13:27:52;27.60;99.90
1391;DHT22;690;51.454;7.194;2023-09-07T13:30:19;27.60;99.90
1391;DHT22;690;51.454;7.194;2023-09-07T13:32:46;27.70;99.90
1391;DHT22;690;51.454;7.194;2023-09-07T13:35:16;27.80;99.90
1391;DHT22;690;51.454;7.194;2023-09-07T13:37:43;27.80;99.90
1391;DHT22;690;51.454;7.194;2023-09-07T13:40:11;27.80;99.90
1391;DHT22;690;51.454;7.194;2023-09-07T13:42:40;27.70;99.90
1391;DHT22;690;51.454;7.194;2023-09-07T13:45:09;27.80;99.90
1391;DHT22;690;51.454;7.194;2023-09-07T13:47:36;27.80;99.90
1391;DHT22;690;51.454;7.194;2023-09-07T13:50:04;27.90;99.90
1391;DHT22;690;51.454;7.194;2023-09-07T13:52:32;27.90;99.90
1391;DHT22;690;51.454;7.194;2023-09-07T13:54:59;27.90;99.90
1391;DHT22;690;51.454;7.194;2023-09-07T13:57:27;28.00;99.90
1391;DHT22;690;51.454;7.194;2023-09-07T13:59:57;28.00;99.90
1391;DHT22;690;51.454;7.194;2023-09-07T14:02:24;28.00;99.90
1391;DHT22;690;51.454;7.194;2023-09-07T14:04:51;28.10;99.90
1391;DHT22;690;51.454;7.194;2023-09-07T14:07:18;28.30;99.90
1391;DHT22;690;51.454;7.194;2023-09-07T14:09:46;28.40;99.90
1391;DHT22;690;51.454;7.194;2023-09-07T14:12:13;28.40;99.90
1391;DHT22;690;51.454;7.194;2023-09-07T14:14:40;28.40;99.90
1391;DHT22;690;51.454;7.194;2023-09-07T14:17:07;28.40;99.90
1391;DHT22;690;51.454;7.194;2023-09-07T14:19:34;28.50;99.90
1391;DHT22;690;51.454;7.194;2023-09-07T14:22:01;28.60;99.90
1391;DHT22;690;51.454;7.194;2023-09-07T14:24:28;28.60;99.90
1391;DHT22;690;51.454;7.194;2023-09-07T14:26:56;28.50;99.90
1391;DHT22;690;51.454;7.194;2023-09-07T14:29:23;28.50;99.90
1391;DHT22;690;51.454;7.194;2023-09-07T14:31:50;28.50;99.90
1391;DHT22;690;51.454;7.194;2023-09-07T14:34:17;28.50;99.90
1391;DHT22;690;51.454;7.194;2023-09-07T14:36:43;28.50;99.90
1391;DHT22;690;51.454;7.194;2023-09-07T14:39:10;28.60;99.90
1391;DHT22;690;51.454;7.194;2023-09-07T14:41:37;28.60;99.90
1391;DHT22;690;51.454;7.194;2023-09-07T14:44:07;28.60;99.90
1391;DHT22;690;51.454;7.194;2023-09-07T14:46:36;28.60;99.90
1391;DHT22;690;51.454;7.194;2023-09-07T14:49:03;28.60;99.90
1391;DHT22;690;51.454;7.194;2023-09-07T14:51:30;28.60;99.90
1391;DHT22;690;51.454;7.194;2023-09-07T14:53:57;28.60;99.90
1391;DHT22;690;51.454;7.194;2023-09-07T14:56:24;28.60;99.90
1391;DHT22;690;51.454;7.194;2023-09-07T14:58:52;28.70;99.90
1391;DHT22;690;51.454;7.194;2023-09-07T15:01:20;28.70;99.90
1391;DHT22;690;51.454;7.194;2023-09-07T15:03:47;28.70;99.90
1391;DHT22;690;51.454;7.194;2023-09-07T15:06:14;28.70;99.90
1391;DHT22;690;51.454;7.194;2023-09-07T15:08:43;28.70;99.90
1391;DHT22;690;51.454;7.194;2023-09-07T15:11:10;28.80;99.90
1391;DHT22;690;51.454;7.194;2023-09-07T15:13:37;28.80;99.90
1391;DHT22;690;51.454;7.194;2023-09-07T15:16:05;28.70;99.90
1391;DHT22;690;51.454;7.194;2023-09-07T15:18:35;28.70;99.90
1391;DHT22;690;51.454;7.194;2023-09-07T15:21:02;28.70;99.90
1391;DHT22;690;51.454;7.194;2023-09-07T15:23:29;28.70;99.90
1391;DHT22;690;51.454;7.194;2023-09-07T15:25:56;28.70;99.90
1391;DHT22;690;51.454;7.194;2023-09-07T15:28:23;28.70;99.90
1391;DHT22;690;51.454;7.194;2023-09-07T15:30:50;28.70;99.90
1391;DHT22;690;51.454;7.194;2023-09-07T15:33:17;28.80;99.90
1391;DHT22;690;51.454;7.194;2023-09-07T15:35:45;28.90;99.90
1391;DHT22;690;51.454;7.194;2023-09-07T15:38:12;29.00;99.90
1391;DHT22;690;51.454;7.194;2023-09-07T15:40:39;29.10;99.90
1391;DHT22;690;51.454;7.194;2023-09-07T15:43:08;29.20;99.90
1391;DHT22;690;51.454;7.194;2023-09-07T15:45:37;29.30;99.90
1391;DHT22;690;51.454;7.194;2023-09-07T15:48:04;29.30;99.90
1391;DHT22;690;51.454;7.194;2023-09-07T15:50:32;29.40;99.90
1391;DHT22;690;51.454;7.194;2023-09-07T15:53:00;29.60;99.90
1391;DHT22;690;51.454;7.194;2023-09-07T15:55:27;29.70;99.90
1391;DHT22;690;51.454;7.194;2023-09-07T15:57:54;29.80;99.90
1391;DHT22;690;51.454;7.194;2023-09-07T16:00:21;29.90;99.90
1391;DHT22;690;51.454;7.194;2023-09-07T16:02:48;30.10;99.90
1391;DHT22;690;51.454;7.194;2023-09-07T16:05:15;30.30;99.90
1391;DHT22;690;51.454;7.194;2023-09-07T16:07:42;30.60;99.90
1391;DHT22;690;51.454;7.194;2023-09-07T16:10:10;31.00;99.90
1391;DHT22;690;51.454;7.194;2023-09-07T16:12:38;31.40;99.90
1391;DHT22;690;51.454;7.194;2023-09-07T16:15:06;31.80;99.90
1391;DHT22;690;51.454;7.194;2023-09-07T16:17:33;32.30;99.90
1391;DHT22;690;51.454;7.194;2023-09-07T16:20:00;32.80;99.90
1391;DHT22;690;51.454;7.194;2023-09-07T16:22:27;33.20;99.90
1391;DHT22;690;51.454;7.194;2023-09-07T16:24:54;33.60;99.90